Saturday, December 16, 2017, 9:21 PM EST
Back to Local

KLNS, Lancaster Airport

Location: Lititz, PA, United States Lat: 40.117
Local Time: 9:21 PM EST ( 2:21 GMT) Lon: -76.3
Time Zone: US/Eastern Elev: 403 ft

Show me the last for .
Show Decoded

2017-12-16 20:53 METAR KLNS 170153Z 00000KT 10SM OVC055 03/M03 A3014 RMK AO2 SLP211 T00331033 =
2017-12-16 19:53 METAR KLNS 170053Z 00000KT 10SM OVC055 03/M03 A3014 RMK AO2 SLP209 T00281028 =
2017-12-16 18:53 METAR KLNS 162353Z 25004KT 10SM BKN055 OVC075 04/M03 A3011 RMK AO2 SLP201
                 T00391033 10056 20033 53031 =
2017-12-16 17:53 METAR KLNS 162253Z 24004KT 10SM SCT060 OVC075 04/M03 A3008 RMK AO2 SLP190
                 T00441033 =
2017-12-16 16:53 METAR KLNS 162153Z 25006KT 10SM OVC060 04/M03 A3005 RMK AO2 SLP180 T00441033 =
2017-12-16 15:53 METAR KLNS 162053Z 23007KT 10SM BKN060 05/M03 A3002 RMK AO2 SLP170 T00501033
                 55001 =
2017-12-16 14:53 METAR KLNS 161953Z 24010KT 10SM OVC055 06/M04 A3001 RMK AO2 SLP167 T00561039 =
2017-12-16 13:53 METAR KLNS 161853Z 23014KT 10SM BKN060 05/M04 A3001 RMK AO2 SLP166 T00501039 =
2017-12-16 12:53 METAR KLNS 161753Z 24013KT 10SM OVC045 04/M03 A3002 RMK AO2 SLP171 T00391033
                 10039 21039 56018 =
2017-12-16 11:53 METAR KLNS 161653Z 24013KT 10SM FEW044 03/M04 A3003 RMK AO2 SLP172 T00331039 =
2017-12-16 10:53 METAR KLNS 161553Z 21007KT 10SM BKN045 02/M04 A3005 RMK AO2 SLP182 T00171044 =
2017-12-16 09:53 METAR KLNS 161453Z 21006KT 10SM BKN045 BKN050 M01/M06 A3008 RMK AO2 SLP189
                 T10061061 50009 =
2017-12-16 08:53 METAR KLNS 161353Z 22009KT 10SM OVC045 M02/M07 A3008 RMK AO2 SLP192 T10171072 =
2017-12-16 07:53 METAR KLNS 161253Z 21008KT 10SM BKN049 OVC060 M03/M08 A3006 RMK AO2 SLP186
                 T10281078 =
2017-12-16 07:31 METAR KLNS 161231Z 21009KT 10SM BKN060 M03/M08 A3006 RMK AO2 T10281078 =
2017-12-16 06:53 METAR KLNS 161153Z 22007KT 10SM SCT050 M03/M08 A3005 RMK AO2 SLP180 70004
                 T10331078 11033 21100 53012 =
2017-12-16 05:53 METAR KLNS 161053Z 24005KT 9SM BKN065 M08/M09 A3003 RMK AO2 SLP174 T10831094 =
2017-12-16 04:53 METAR KLNS 160953Z AUTO 00000KT 3SM BR FEW055 M09/M10 A3001 RMK AO2 SLP168
                 T10941100 =
2017-12-16 04:49 METAR KLNS 160949Z AUTO 00000KT 2 1/2SM BR FEW055 M09/M09 A3001 RMK AO2 =
2017-12-16 03:53 METAR KLNS 160853Z AUTO 00000KT 6SM BR CLR M08/M09 A3001 RMK AO2 SLP168
                 T10781089 51013 =
2017-12-16 02:53 METAR KLNS 160753Z AUTO 06004KT 4SM BR OVC055 M08/M08 A3001 RMK AO2 SLP168
                 T10781083 =
2017-12-16 01:53 METAR KLNS 160653Z AUTO 00000KT 4SM BR OVC055 M07/M08 A2999 RMK AO2 SLP160
                 T10721083 =
2017-12-16 00:53 METAR KLNS 160553Z AUTO 15004KT 3SM BR BKN060 M08/M08 A2997 RMK AO2 SLP155 I6001
                 T10781083 11044 21100 53008 =
2017-12-16 00:22 METAR KLNS 160522Z AUTO 34003KT 3SM BR SCT048 OVC060 M07/M08 A2998 RMK AO2
                 T10721083 =
2017-12-16 00:18 METAR KLNS 160518Z AUTO 32003KT 1 1/4SM BR SCT048 OVC060 M07/M09 A2997 RMK AO2
                 T10721089 =
2017-12-16 00:05 METAR KLNS 160505Z AUTO 00000KT 1/4SM FZFG SCT048 OVC060 M08/M08 A2997 RMK AO2
                 T10831083 =
2017-12-15 23:53 METAR KLNS 160453Z AUTO 00000KT 1SM BR FEW048 OVC060 M08/M08 A2996 RMK AO2
                 SLP151 T10781078 410331100 =
2017-12-15 23:40 METAR KLNS 160440Z AUTO 00000KT 3/4SM BR FEW050 OVC060 M07/M08 A2995 RMK AO2
                 T10721083 =
2017-12-15 23:36 METAR KLNS 160436Z AUTO 00000KT 2 1/2SM BR OVC060 M08/M08 A2996 RMK AO2
                 T10781083 =
2017-12-15 23:23 METAR KLNS 160423Z AUTO 00000KT 1SM BR FEW004 BKN060 M08/M08 A2995 RMK AO2
                 T10781083 =
2017-12-15 23:11 METAR KLNS 160411Z AUTO 00000KT 1/4SM FZFG FEW005 SCT060 M09/M10 A2996 RMK AO2
                 T10941100 =
2017-12-15 22:59 METAR KLNS 160359Z AUTO 00000KT 1/4SM FZFG VV005 M09/M09 A2996 RMK AO2 T10941094
                 =
2017-12-15 22:53 METAR KLNS 160353Z 00000KT 1/2SM FZFG VV005 M08/M08 A2995 RMK AO2 SLP148 I1001
                 T10831083 =
2017-12-15 22:51 METAR KLNS 160351Z 00000KT 1/2SM FZFG VV005 M08/M08 A2995 RMK AO2 I1001 =
2017-12-15 22:41 METAR KLNS 160341Z 00000KT 1/4SM FZFG SCT004 BKN050 M08/M08 A2995 RMK AO2 I1001
                 T10781078 =
2017-12-15 22:33 METAR KLNS 160333Z 00000KT 1/2SM FZFG FEW004 SCT050 M07/M08 A2995 RMK AO2 I1000
                 T10721078 =
2017-12-15 22:28 METAR KLNS 160328Z 00000KT 1 3/4SM BR SCT050 M07/M07 A2995 RMK AO2 I1000
                 T10671072 =
2017-12-15 22:19 METAR KLNS 160319Z 00000KT 3/4SM BR FEW055 M07/M07 A2995 RMK AO2 I1000 T10671072
                 =
2017-12-15 22:03 METAR KLNS 160303Z 00000KT 1/4SM FZFG CLR M08/M08 A2995 RMK AO2 T10831083 =
2017-12-15 21:55 METAR KLNS 160255Z 00000KT 1 3/4SM BR CLR M07/M07 A2995 RMK AO2 T10721072 =
2017-12-15 21:53 METAR KLNS 160253Z 00000KT 3SM BR CLR M07/M07 A2995 RMK AO2 SLP147 I1000 I3000
                 T10671067 51008 =

Support USWX by starting your Amazon purchase here.